Spring's Hourly Summary for Saturday, March 18, 2017
Hour Temp
(f)
RH
(%)
Solar Rad.
(MJ/m2)
Rainfall
(in)
Wind
(mph)
3/18/2017 12:00 AM 67 83 0 0 2.4
3/18/2017 1:00 AM 65 88 0 0 0.13
3/18/2017 2:00 AM 63 93 0 0 0
3/18/2017 3:00 AM 61 96 0 0 0.04
3/18/2017 4:00 AM 61 98 0 0 0.14
3/18/2017 5:00 AM 60 99 0 0 0.16
3/18/2017 6:00 AM 59 99 0 0 0
3/18/2017 7:00 AM 60 99 0 0 0.32
3/18/2017 8:00 AM 60 99 0.03 0 0.23
3/18/2017 9:00 AM 62 99 0.3 0 0.67
3/18/2017 10:00 AM 63 99 0.71 0 1.39
3/18/2017 11:00 AM 68 81 1.75 0 1.86
3/18/2017 12:00 PM 74 66 2.31 0 2.01
3/18/2017 1:00 PM 78 56 3.46 0 3.73
3/18/2017 2:00 PM 79 49 2.72 0 3.16
3/18/2017 3:00 PM 81 48 2.21 0 2.29
3/18/2017 4:00 PM 82 43 2.37 0 3.87
3/18/2017 5:00 PM 83 43 1.9 0 3.56
3/18/2017 6:00 PM 82 40 1.2 0 5.33
3/18/2017 7:00 PM 79 59 0.46 0 6.18
3/18/2017 8:00 PM 77 67 0.02 0 4.7
3/18/2017 9:00 PM 75 69 0 0 4.03
3/18/2017 10:00 PM 74 73 0 0 4.89
3/18/2017 11:00 PM 72 75 0 0 4.18
Data Summary 70 75 19.44 0.00 2.30